Time;durP1;ratioP1;P1;durP2;ratioP2;P2;SDS_P1;SDS_P2;PMS_P1;PMS_P2;Temp;Humidity;BMP_temperature;BMP_pressure;BME280_temperature;BME280_humidity;BME280_pressure;Samples;Min_cycle;Max_cycle;Signal;HPM_P1;HPM_P2
2022/09/19 00:01:46;;;;;;;4.82;1.42;;;;;;;9.16;100.00;100423.88;5038124;28;20033;-82
2022/09/19 00:04:20;;;;;;;3.35;1.05;;;;;;;9.18;100.00;100419.53;5002489;28;20053;-83
2022/09/19 00:06:50;;;;;;;3.08;1.15;;;;;;;9.16;100.00;100419.50;5008191;28;20049;-83
2022/09/19 00:09:21;;;;;;;1.70;0.88;;;;;;;9.14;100.00;100423.00;5023877;28;20731;-82
2022/09/19 00:11:50;;;;;;;1.25;1.10;;;;;;;9.10;100.00;100428.25;5040658;28;20102;-82
2022/09/19 00:14:23;;;;;;;3.70;1.10;;;;;;;9.05;100.00;100430.03;5023093;28;20570;-83
2022/09/19 00:16:50;;;;;;;3.22;0.88;;;;;;;8.93;100.00;100436.19;5034464;28;20072;-82
2022/09/19 00:19:21;;;;;;;4.30;1.27;;;;;;;8.84;100.00;100445.81;5004729;28;20053;-83
2022/09/19 00:21:49;;;;;;;6.82;1.23;;;;;;;8.74;100.00;100447.63;5012919;28;20068;-81
2022/09/19 00:27:04;;;;;;;3.95;0.80;;;;;;;8.61;100.00;100463.31;5026952;28;20894;-82
2022/09/19 00:29:34;;;;;;;6.82;1.38;;;;;;;8.51;100.00;100461.59;5005876;28;20038;-83
2022/09/19 00:32:00;;;;;;;2.53;1.23;;;;;;;8.50;100.00;100465.09;5029637;28;20038;-82
2022/09/19 00:34:28;;;;;;;6.85;1.23;;;;;;;8.52;100.00;100468.56;5028482;28;20421;-82
2022/09/19 00:36:55;;;;;;;8.80;1.48;;;;;;;8.57;100.00;100473.78;5014398;28;20041;-83
2022/09/19 00:39:21;;;;;;;7.00;1.27;;;;;;;8.63;100.00;100460.72;5038082;28;20069;-82
2022/09/19 00:41:48;;;;;;;4.13;1.80;;;;;;;8.71;100.00;100468.50;5018369;28;20090;-82
2022/09/19 00:44:24;;;;;;;3.25;1.17;;;;;;;8.80;100.00;100467.59;5026476;28;20047;-83
2022/09/19 00:47:14;;;;;;;3.20;1.08;;;;;;;8.85;100.00;100471.94;5042370;28;20073;-82
2022/09/19 00:49:46;;;;;;;5.93;2.40;;;;;;;8.90;100.00;100477.09;5024840;28;20049;-82
2022/09/19 00:52:19;;;;;;;3.22;1.50;;;;;;;8.94;100.00;100473.59;5020311;28;21178;-83
2022/09/19 00:54:48;;;;;;;;;;;;;;;8.96;100.00;100486.66;5024070;28;20050;-83
2022/09/19 00:57:16;;;;;;;5.25;1.10;;;;;;;9.01;100.00;100487.50;5023891;28;19924;-83
2022/09/19 00:59:50;;;;;;;6.07;1.10;;;;;;;9.02;100.00;100495.34;5027201;28;20045;-82
2022/09/19 01:02:21;;;;;;;;;;;;;;;9.00;100.00;100496.22;5028188;28;20099;-82
2022/09/19 01:04:48;;;;;;;6.03;1.30;;;;;;;8.98;100.00;100497.97;5027671;28;19921;-82
2022/09/19 01:07:45;;;;;;;2.38;1.00;;;;;;;8.98;100.00;100503.19;5023581;28;20052;-82
2022/09/19 01:11:10;;;;;;;6.00;1.05;;;;;;;8.96;100.00;100504.91;5022644;28;20049;-82
2022/09/19 01:14:16;;;;;;;3.30;0.75;;;;;;;8.92;100.00;100504.94;5026493;28;20037;-83
2022/09/19 01:16:52;;;;;;;3.42;1.63;;;;;;;8.86;100.00;100509.31;5055708;28;20381;-83
2022/09/19 01:20:10;;;;;;;5.13;1.23;;;;;;;8.80;100.00;100520.66;5032606;28;20136;-81
2022/09/19 01:23:12;;;;;;;6.40;1.65;;;;;;;8.74;100.00;100512.84;5006231;28;20037;-83
2022/09/19 01:26:11;;;;;;;2.97;1.23;;;;;;;8.77;100.00;100523.28;5022299;28;20491;-82
2022/09/19 01:28:59;;;;;;;2.13;1.27;;;;;;;8.80;100.00;100531.13;5025481;28;20048;-83
2022/09/19 01:31:30;;;;;;;0.90;0.90;;;;;;;8.82;100.00;100534.56;5025940;28;20112;-83
2022/09/19 01:34:18;;;;;;;7.13;1.20;;;;;;;8.84;100.00;100534.56;5019555;28;21153;-82
2022/09/19 01:36:57;;;;;;;1.92;0.80;;;;;;;8.85;100.00;100538.91;5022984;28;20051;-82
2022/09/19 01:39:29;;;;;;;1.38;0.82;;;;;;;8.85;100.00;100541.53;5022915;28;20056;-83
2022/09/19 01:41:57;;;;;;;1.83;0.88;;;;;;;8.85;100.00;100537.19;5021178;28;20052;-82
2022/09/19 01:44:27;;;;;;;2.22;0.93;;;;;;;8.83;100.00;100540.69;5020801;28;20799;-83
2022/09/19 01:47:16;;;;;;;2.22;0.80;;;;;;;8.77;100.00;100551.97;5023834;28;21036;-83
2022/09/19 01:50:05;;;;;;;4.18;0.70;;;;;;;8.71;100.00;100550.28;5021639;28;20195;-83
2022/09/19 01:53:10;;;;;;;5.82;0.63;;;;;;;8.56;100.00;100556.38;5029121;28;20045;-82
2022/09/19 01:55:57;;;;;;;;;;;;;;;8.39;100.00;100561.59;5035753;28;20041;-83
2022/09/19 01:58:42;;;;;;;4.50;1.60;;;;;;;8.33;100.00;100560.75;5020935;28;19935;-83
2022/09/19 02:01:26;;;;;;;2.85;0.90;;;;;;;8.27;100.00;100569.47;5019911;28;20053;-82
2022/09/19 02:04:14;;;;;;;1.02;0.82;;;;;;;8.28;100.00;100576.41;4998648;28;20045;-83
2022/09/19 02:06:47;;;;;;;3.22;0.90;;;;;;;8.24;100.00;100580.75;4996747;28;20133;-83
2022/09/19 02:09:44;;;;;;;1.23;1.10;;;;;;;8.14;100.00;100580.78;5010097;28;20152;-83
2022/09/19 02:12:16;;;;;;;1.85;0.60;;;;;;;8.03;100.00;100584.25;4986449;28;20060;-82
2022/09/19 02:14:51;;;;;;;3.25;1.30;;;;;;;7.96;100.00;100582.47;5003890;28;20060;-83
2022/09/19 02:17:24;;;;;;;4.22;1.00;;;;;;;7.91;100.00;100589.44;5033710;28;20064;-82
2022/09/19 02:19:58;;;;;;;4.50;0.73;;;;;;;7.90;100.00;100587.69;5034072;28;20135;-82
2022/09/19 02:22:34;;;;;;;3.70;0.77;;;;;;;7.86;100.00;100589.44;5017458;28;20056;-83
2022/09/19 02:25:11;;;;;;;3.03;0.75;;;;;;;7.81;100.00;100585.97;5016071;28;20045;-83
2022/09/19 02:27:50;;;;;;;2.47;0.90;;;;;;;7.78;100.00;100589.44;5003627;28;20095;-82
2022/09/19 02:30:19;;;;;;;4.63;0.70;;;;;;;7.72;100.00;100591.16;5005169;28;20055;-83
2022/09/19 02:32:48;;;;;;;5.13;0.60;;;;;;;7.66;100.00;100591.16;5034188;28;20052;-82
2022/09/19 02:35:45;;;;;;;3.47;0.90;;;;;;;7.66;100.00;100604.16;5011444;28;20046;-84
2022/09/19 02:38:23;;;;;;;4.30;0.98;;;;;;;7.62;100.00;100603.28;5023341;28;20047;-82
2022/09/19 02:41:26;;;;;;;1.83;1.08;;;;;;;7.64;100.00;100604.19;5017128;28;20083;-83
2022/09/19 02:44:13;;;;;;;7.13;1.10;;;;;;;7.69;100.00;100601.56;5011048;28;20225;-82
2022/09/19 02:47:03;;;;;;;4.45;2.60;;;;;;;7.73;100.00;100603.31;5038011;28;20072;-83
2022/09/19 02:49:48;;;;;;;3.88;2.33;;;;;;;7.75;100.00;100606.78;5034611;28;20533;-83
2022/09/19 02:52:20;;;;;;;3.97;1.40;;;;;;;7.68;100.00;100610.22;5040050;28;20049;-82
2022/09/19 02:54:53;;;;;;;4.95;1.33;;;;;;;7.69;100.00;100614.59;5016802;28;20041;-83
2022/09/19 02:57:23;;;;;;;3.33;1.50;;;;;;;7.62;100.00;100616.31;5025711;28;20044;-83
2022/09/19 02:59:58;;;;;;;3.78;1.58;;;;;;;7.57;100.00;100620.63;5032920;28;20079;-82
2022/09/19 03:02:29;;;;;;;7.18;1.60;;;;;;;7.51;100.00;100626.72;5040282;28;20045;-82
2022/09/19 03:05:18;;;;;;;3.53;1.52;;;;;;;7.47;100.00;100624.06;5022705;28;20052;-82
2022/09/19 03:07:59;;;;;;;4.93;2.08;;;;;;;7.43;100.00;100628.41;5030816;28;20175;-82
2022/09/19 03:10:33;;;;;;;4.25;2.15;;;;;;;7.39;100.00;100617.13;5028437;28;20731;-83
2022/09/19 03:13:03;;;;;;;7.72;1.92;;;;;;;7.34;100.00;100624.06;5023684;28;20052;-81
2022/09/19 03:15:47;;;;;;;11.45;2.13;;;;;;;7.35;100.00;100635.31;5010294;28;20180;-81
2022/09/19 03:18:17;;;;;;;9.90;2.03;;;;;;;7.34;100.00;100634.47;5034778;28;20069;-80
2022/09/19 03:20:55;;;;;;;9.18;2.25;;;;;;;7.29;100.00;100639.63;5025712;28;20041;-82
2022/09/19 03:23:31;;;;;;;7.25;2.58;;;;;;;7.33;100.00;100639.69;5025592;28;20041;-80
2022/09/19 03:25:57;;;;;;;5.88;2.33;;;;;;;7.32;100.00;100637.94;5021798;28;20046;-82
2022/09/19 03:28:24;;;;;;;8.05;2.10;;;;;;;7.33;100.00;100640.53;5020478;28;20988;-81
2022/09/19 03:30:50;;;;;;;9.75;2.63;;;;;;;7.28;100.00;100637.91;5029523;28;20132;-80
2022/09/19 03:33:17;;;;;;;7.25;1.92;;;;;;;7.22;100.00;100645.69;5044689;28;20499;-80
2022/09/19 03:35:49;;;;;;;10.93;2.53;;;;;;;7.18;100.00;100659.53;5023497;28;20076;-81
2022/09/19 03:38:17;;;;;;;5.90;3.03;;;;;;;7.13;100.00;100650.84;5027935;28;20098;-79
2022/09/19 03:40:44;;;;;;;9.70;2.70;;;;;;;7.13;100.00;100656.03;5040268;28;20084;-82
2022/09/19 03:43:10;;;;;;;6.68;3.15;;;;;;;7.10;100.00;100658.63;5029191;28;20046;-80
2022/09/19 03:45:37;;;;;;;7.57;2.38;;;;;;;7.09;100.00;100657.78;5025452;28;20040;-80
2022/09/19 03:48:04;;;;;;;7.82;2.40;;;;;;;7.09;100.00;100665.59;5047832;28;20048;-81
2022/09/19 03:50:30;;;;;;;8.15;2.03;;;;;;;7.06;100.00;100659.50;5028592;28;20479;-82
2022/09/19 03:52:58;;;;;;;11.30;2.40;;;;;;;7.03;100.00;100657.75;5027380;28;20099;-88
2022/09/19 03:55:26;;;;;;;7.43;2.45;;;;;;;7.04;100.00;100661.19;5045918;28;20717;-82
2022/09/19 03:57:52;;;;;;;10.40;3.50;;;;;;;7.06;100.00;100667.31;5027740;28;20119;-81
2022/09/19 04:00:19;;;;;;;11.98;2.70;;;;;;;7.11;100.00;100670.81;5029686;28;20040;-82
2022/09/19 04:02:46;;;;;;;10.48;3.22;;;;;;;7.09;100.00;100670.81;5011271;28;20060;-80
2022/09/19 04:05:13;;;;;;;10.65;3.67;;;;;;;7.11;100.00;100669.06;5028418;28;20099;-79
2022/09/19 04:07:41;;;;;;;9.38;3.35;;;;;;;7.12;100.00;100669.94;5033879;28;20056;-81
2022/09/19 04:10:08;;;;;;;7.72;2.47;;;;;;;7.13;100.00;100671.66;5025588;28;20038;-80
2022/09/19 04:12:34;;;;;;;10.35;2.60;;;;;;;7.16;100.00;100671.69;5012003;28;20049;-82
2022/09/19 04:15:01;;;;;;;8.95;2.70;;;;;;;7.15;100.00;100671.69;5031518;28;20052;-81
2022/09/19 04:17:28;;;;;;;14.43;3.05;;;;;;;7.10;100.00;100667.34;5013584;28;20049;-81
2022/09/19 04:19:55;;;;;;;9.07;2.28;;;;;;;7.10;100.00;100676.88;5041536;28;20476;-82
2022/09/19 04:22:22;;;;;;;6.50;2.25;;;;;;;7.07;100.00;100680.31;5042004;28;20044;-82
2022/09/19 04:24:51;;;;;;;8.55;2.53;;;;;;;7.05;100.00;100684.66;5013488;28;20055;-80
2022/09/19 04:27:18;;;;;;;6.35;2.05;;;;;;;7.06;100.00;100685.53;5016850;28;20118;-80
2022/09/19 04:29:45;;;;;;;14.95;3.38;;;;;;;7.06;100.00;100683.78;5014346;28;20045;-81
2022/09/19 04:32:12;;;;;;;7.30;3.10;;;;;;;7.07;100.00;100688.13;5027073;28;20045;-81
2022/09/19 04:34:42;;;;;;;6.32;2.92;;;;;;;7.08;100.00;100692.47;5033393;28;20037;-80
2022/09/19 04:37:09;;;;;;;11.15;4.10;;;;;;;7.06;100.00;100693.31;5029599;28;20140;-79
2022/09/19 04:39:36;;;;;;;8.10;2.95;;;;;;;7.09;100.00;100690.72;5028489;28;20515;-80
2022/09/19 04:42:02;;;;;;;6.88;3.00;;;;;;;7.12;100.00;100698.59;5027436;28;20037;-80
2022/09/19 04:44:29;;;;;;;14.40;3.33;;;;;;;7.09;100.00;100695.94;5044285;28;20488;-80
2022/09/19 04:46:57;;;;;;;9.02;3.00;;;;;;;7.06;100.00;100696.78;5032628;28;20441;-79
2022/09/19 04:49:26;;;;;;;10.00;2.33;;;;;;;7.10;100.00;100701.19;5031441;28;20049;-79
2022/09/19 04:51:55;;;;;;;10.20;3.97;;;;;;;7.08;100.00;100705.50;5032423;28;20132;-79
2022/09/19 04:54:21;;;;;;;15.90;3.13;;;;;;;7.09;100.00;100709.84;5025628;28;20457;-79
2022/09/19 04:56:48;;;;;;;10.30;2.53;;;;;;;7.08;100.00;100708.09;5042617;28;20080;-80
2022/09/19 04:59:14;;;;;;;7.95;2.55;;;;;;;7.06;100.00;100707.19;5041200;28;20037;-80
2022/09/19 05:01:44;;;;;;;11.00;2.50;;;;;;;7.12;100.00;100715.06;5018595;28;20060;-79
2022/09/19 05:04:11;;;;;;;5.85;1.98;;;;;;;7.14;100.00;100724.63;5027141;28;20048;-79
2022/09/19 05:06:38;;;;;;;9.00;2.35;;;;;;;7.14;100.00;100728.06;5040240;28;20045;-80
2022/09/19 05:09:04;;;;;;;15.15;2.63;;;;;;;7.18;100.00;100727.22;5041390;28;20126;-82
2022/09/19 05:11:31;;;;;;;8.77;2.25;;;;;;;7.23;100.00;100735.09;5010714;28;20034;-79
2022/09/19 05:14:00;;;;;;;11.23;3.83;;;;;;;7.29;100.00;100733.38;5042095;28;20038;-80
2022/09/19 05:16:26;;;;;;;10.38;2.38;;;;;;;7.32;100.00;100734.28;5026129;28;20064;-79
2022/09/19 05:18:53;;;;;;;13.00;2.70;;;;;;;7.42;100.00;100736.06;5040858;28;20045;-80
2022/09/19 05:21:20;;;;;;;17.50;2.47;;;;;;;7.45;100.00;100734.31;5035627;28;20041;-79
2022/09/19 05:23:47;;;;;;;11.75;3.25;;;;;;;7.54;100.00;100730.91;5026003;28;20045;-80
2022/09/19 05:26:16;;;;;;;8.65;2.47;;;;;;;7.60;100.00;100730.94;5025876;28;20042;-80
2022/09/19 05:28:45;;;;;;;10.57;2.60;;;;;;;7.73;100.00;100739.69;5025085;28;20444;-79
2022/09/19 05:31:12;;;;;;;11.77;2.70;;;;;;;7.77;100.00;100741.44;5011290;28;20045;-81
2022/09/19 05:33:40;;;;;;;11.80;2.70;;;;;;;7.86;100.00;100739.72;5023963;28;20056;-81
2022/09/19 05:36:07;;;;;;;10.80;3.83;;;;;;;7.95;100.00;100739.75;5025457;28;20041;-79
2022/09/19 05:38:35;;;;;;;10.30;3.63;;;;;;;8.00;100.00;100742.38;5005542;28;20643;-79
2022/09/19 05:41:04;;;;;;;12.82;3.92;;;;;;;8.08;100.00;100743.25;5024146;28;20628;-82
2022/09/19 05:43:31;;;;;;;8.88;3.95;;;;;;;8.18;100.00;100747.63;5024614;28;20044;-80
2022/09/19 05:46:00;;;;;;;12.32;4.63;;;;;;;8.28;100.00;100746.78;5009914;28;20114;-79
2022/09/19 05:48:29;;;;;;;10.77;4.32;;;;;;;8.33;100.00;100752.03;5019917;28;20095;-79
2022/09/19 05:50:56;;;;;;;10.70;6.28;;;;;;;8.40;100.00;100763.34;5031745;28;20076;-79
2022/09/19 05:56:08;;;;;;;;;;;;;;;8.56;100.00;100759.91;5025156;28;20037;-79
2022/09/19 05:58:36;;;;;;;19.02;6.60;;;;;;;8.66;100.00;100767.75;5038169;28;19932;-80
2022/09/19 06:01:09;;;;;;;19.25;7.97;;;;;;;8.77;100.00;100761.69;5009804;28;20041;-80
2022/09/19 06:03:38;;;;;;;12.45;6.15;;;;;;;8.87;100.00;100779.94;5028334;28;20041;-79
2022/09/19 06:06:18;;;;;;;14.35;7.57;;;;;;;8.92;100.00;100779.06;5001552;28;20051;-80
2022/09/19 06:08:47;;;;;;;15.57;7.05;;;;;;;9.00;100.00;100781.69;5022346;28;20136;-81
2022/09/19 06:11:14;;;;;;;17.73;7.22;;;;;;;9.16;100.00;100781.66;5022371;28;20045;-79
2022/09/19 06:16:26;;;;;;;13.07;5.70;;;;;;;9.38;100.00;100785.97;5010520;28;20064;-79
2022/09/19 06:18:53;;;;;;;34.90;8.00;;;;;;;9.42;100.00;100784.25;5038346;28;20066;-80
2022/09/19 06:21:20;;;;;;;16.65;5.40;;;;;;;9.41;100.00;100786.00;5003433;28;20069;-81
2022/09/19 06:23:47;;;;;;;8.05;4.80;;;;;;;9.46;100.00;100785.09;5023629;28;20053;-79
2022/09/19 06:26:13;;;;;;;25.63;6.43;;;;;;;9.44;100.00;100795.56;5025348;28;20044;-79
2022/09/19 06:28:40;;;;;;;9.20;4.00;;;;;;;9.39;100.00;100798.19;5050615;28;20061;-80
2022/09/19 06:31:07;;;;;;;11.50;4.20;;;;;;;9.38;100.00;100806.03;5051099;28;20356;-80
2022/09/19 06:33:37;;;;;;;10.23;4.15;;;;;;;9.35;100.00;100795.59;5023370;28;20497;-81
2022/09/19 06:36:05;;;;;;;12.63;4.28;;;;;;;9.35;100.00;100796.44;5004402;28;20056;-81
2022/09/19 06:38:33;;;;;;;10.95;4.43;;;;;;;9.38;100.00;100809.50;5007853;28;20045;-79
2022/09/19 06:41:00;;;;;;;9.98;3.97;;;;;;;9.48;100.00;100812.09;5032899;28;20039;-80
2022/09/19 06:43:30;;;;;;;11.30;3.65;;;;;;;9.65;100.00;100812.94;5024392;28;20044;-80
2022/09/19 06:45:57;;;;;;;13.93;4.05;;;;;;;9.79;100.00;100818.13;5031178;28;20124;-82
2022/09/19 06:48:23;;;;;;;8.50;3.97;;;;;;;9.87;100.00;100818.97;5025331;28;21017;-79
2022/09/19 06:50:50;;;;;;;9.93;4.20;;;;;;;9.96;100.00;100823.31;5034660;28;20500;-79
2022/09/19 06:53:17;;;;;;;16.92;4.32;;;;;;;10.07;100.00;100820.63;5025857;28;20459;-79
2022/09/19 06:55:44;;;;;;;13.55;4.20;;;;;;;10.18;100.00;100815.34;5023356;28;20051;-80
2022/09/19 06:58:13;;;;;;;13.02;3.95;;;;;;;10.40;100.00;100816.16;5024751;28;20725;-81
2022/09/19 07:00:40;;;;;;;12.23;3.55;;;;;;;10.77;100.00;100818.53;5026959;28;20048;-79
2022/09/19 07:03:11;;;;;;;12.40;3.45;;;;;;;11.23;100.00;100815.53;5023823;28;20041;-79
2022/09/19 07:05:42;;;;;;;8.27;3.28;;;;;;;11.57;100.00;100825.69;5038574;28;20041;-81
2022/09/19 07:08:10;;;;;;;7.05;2.80;;;;;;;11.88;100.00;100824.50;5007846;28;20052;-79
2022/09/19 07:10:37;;;;;;;8.27;3.40;;;;;;;12.06;100.00;100826.06;5005230;28;20045;-82
2022/09/19 07:13:05;;;;;;;5.40;2.85;;;;;;;11.97;100.00;100821.81;5021838;28;20049;-82
2022/09/19 07:15:35;;;;;;;6.32;3.15;;;;;;;11.96;100.00;100832.31;5036969;28;20642;-80
2022/09/19 07:18:07;;;;;;;8.18;2.50;;;;;;;12.33;100.00;100832.72;5024359;28;20409;-81
2022/09/19 07:20:35;;;;;;;8.18;3.10;;;;;;;12.54;100.00;100831.56;5025938;28;20456;-80
2022/09/19 07:23:13;;;;;;;10.80;2.80;;;;;;;12.52;100.00;100837.72;5025811;28;20045;-79
2022/09/19 07:25:43;;;;;;;8.00;2.97;;;;;;;12.72;100.00;100833.06;5020453;28;20521;-81
2022/09/19 07:28:16;;;;;;;7.95;2.83;;;;;;;12.82;100.00;100825.03;5018331;28;20049;-80
2022/09/19 07:30:46;;;;;;;12.02;2.78;;;;;;;12.84;100.00;100836.34;5029160;28;20222;-81
2022/09/19 07:33:15;;;;;;;11.82;3.03;;;;;;;13.29;100.00;100835.66;5038242;28;20037;-80
2022/09/19 07:35:44;;;;;;;9.07;2.85;;;;;;;13.58;99.18;100835.16;5011686;28;20132;-80
2022/09/19 07:38:14;;;;;;;4.45;2.15;;;;;;;13.77;98.70;100842.72;5015173;28;20049;-80
2022/09/19 07:40:42;;;;;;;11.30;1.80;;;;;;;13.88;98.28;100849.50;5015586;28;20048;-80
2022/09/19 07:43:13;;;;;;;9.82;2.30;;;;;;;14.21;91.65;100851.47;5025295;28;20480;-80
2022/09/19 07:45:46;;;;;;;8.90;2.10;;;;;;;14.50;90.91;100850.00;5023471;28;20056;-81
2022/09/19 07:48:13;;;;;;;9.45;2.17;;;;;;;14.62;89.35;100851.47;5022619;28;20053;-80
2022/09/19 07:50:40;;;;;;;11.93;2.25;;;;;;;14.67;87.45;100860.19;5040929;28;20144;-81
2022/09/19 07:53:14;;;;;;;4.70;1.38;;;;;;;15.09;85.38;100859.22;5024677;28;20136;-81
2022/09/19 07:55:42;;;;;;;8.75;2.38;;;;;;;15.15;85.38;100865.19;5028245;28;20052;-80
2022/09/19 07:58:11;;;;;;;10.02;2.78;;;;;;;15.39;84.33;100865.47;5023189;28;20428;-80
2022/09/19 08:00:41;;;;;;;12.07;2.10;;;;;;;15.49;83.68;100868.75;5034899;28;20564;-82
2022/09/19 08:03:15;;;;;;;13.52;2.55;;;;;;;15.59;80.33;100866.72;5029261;28;20045;-81
2022/09/19 08:05:45;;;;;;;11.95;2.50;;;;;;;15.71;79.72;100869.06;5034434;28;20094;-80
2022/09/19 08:08:15;;;;;;;13.25;2.40;;;;;;;15.69;81.24;100869.06;5025511;28;20726;-80
2022/09/19 08:10:43;;;;;;;7.10;2.20;;;;;;;16.10;79.44;100866.25;5010571;28;20061;-80
2022/09/19 08:13:13;;;;;;;6.85;2.40;;;;;;;16.42;77.14;100871.50;5028083;28;20798;-81
2022/09/19 08:15:41;;;;;;;6.85;2.50;;;;;;;16.76;74.33;100878.41;5009706;28;20052;-80
2022/09/19 08:18:17;;;;;;;6.18;1.35;;;;;;;16.82;73.80;100875.56;5028549;28;20150;-82
2022/09/19 08:20:44;;;;;;;9.10;1.75;;;;;;;16.26;76.35;100887.78;5026102;28;20045;-80
2022/09/19 08:23:14;;;;;;;12.25;2.75;;;;;;;15.67;79.19;100886.75;5025569;28;20061;-80
2022/09/19 08:25:46;;;;;;;13.15;2.55;;;;;;;15.50;80.17;100889.81;5023586;28;20060;-81
2022/09/19 08:28:14;;;;;;;10.68;1.88;;;;;;;15.34;81.80;100897.25;5011991;28;20120;-81
2022/09/19 08:30:43;;;;;;;7.65;1.95;;;;;;;15.63;81.64;100895.66;5026119;28;20045;-81
2022/09/19 08:33:10;;;;;;;7.47;2.05;;;;;;;16.18;77.76;100890.66;5038566;28;20094;-80
2022/09/19 08:35:41;;;;;;;7.38;2.72;;;;;;;16.57;73.41;100899.22;5030296;28;20430;-81
2022/09/19 08:38:11;;;;;;;7.00;2.15;;;;;;;16.76;72.94;100896.91;5018815;28;20488;-80
2022/09/19 08:41:00;;;;;;;12.55;2.38;;;;;;;16.76;74.02;100900.41;5024914;28;20048;-83
2022/09/19 08:43:47;;;;;;;14.05;3.58;;;;;;;16.73;73.48;100905.78;5025790;28;20763;-81
2022/09/19 08:46:17;;;;;;;6.53;2.40;;;;;;;16.28;75.14;100908.88;5027054;28;20048;-83
2022/09/19 08:49:11;;;;;;;12.05;2.20;;;;;;;16.19;75.01;100910.88;5023075;28;20526;-82
2022/09/19 08:52:00;;;;;;;;;;;;;;;15.97;76.80;100915.00;5025981;28;20041;-80
2022/09/19 08:54:35;;;;;;;10.45;2.10;;;;;;;15.73;79.10;100911.22;5021107;28;19986;-80
2022/09/19 08:57:03;;;;;;;10.93;2.95;;;;;;;16.24;76.93;100915.16;5035700;28;20171;-80
2022/09/19 08:59:36;;;;;;;10.32;2.67;;;;;;;16.80;74.88;100909.09;5027419;28;20066;-80
2022/09/19 09:02:27;;;;;;;7.53;1.30;;;;;;;16.76;74.24;100912.75;5025415;28;20037;-80
2022/09/19 09:04:55;;;;;;;8.63;2.25;;;;;;;16.76;73.93;100908.31;5008157;28;20057;-82
2022/09/19 09:08:15;;;;;;;6.68;2.38;;;;;;;17.48;69.92;100910.47;5010779;28;20053;-81
2022/09/19 09:10:54;;;;;;;13.82;2.80;;;;;;;18.62;67.93;100917.94;5039788;28;20044;-81
2022/09/19 09:14:01;;;;;;;9.68;1.90;;;;;;;19.40;62.91;100906.00;5027894;28;20049;-81
2022/09/19 09:17:14;;;;;;;9.70;2.92;;;;;;;19.44;61.99;100910.25;5027653;28;20049;-81
2022/09/19 09:20:20;;;;;;;14.77;2.33;;;;;;;18.54;64.54;100904.97;5022721;28;20111;-81
2022/09/19 09:22:54;;;;;;;9.15;2.45;;;;;;;17.96;66.97;100910.63;5030517;28;20058;-80
2022/09/19 09:25:30;;;;;;;14.20;2.72;;;;;;;17.45;69.24;100912.38;5011866;28;20075;-80
2022/09/19 09:28:35;;;;;;;4.43;2.28;;;;;;;17.45;71.31;100907.06;5026220;28;20056;-82
2022/09/19 09:31:13;;;;;;;8.55;2.00;;;;;;;17.84;68.92;100909.25;5039403;28;20143;-81
2022/09/19 09:33:52;;;;;;;12.05;1.90;;;;;;;18.79;65.97;100904.03;5021787;28;20129;-81
2022/09/19 09:36:23;;;;;;;10.27;2.05;;;;;;;19.06;63.01;100907.41;5009637;28;20041;-82
2022/09/19 09:38:58;;;;;;;9.70;1.80;;;;;;;18.52;64.92;100910.34;5024041;28;20045;-82
2022/09/19 09:41:47;;;;;;;8.40;2.00;;;;;;;18.01;66.73;100908.69;5005953;28;20064;-81
2022/09/19 09:44:13;;;;;;;5.50;1.27;;;;;;;17.59;68.95;100906.63;5023458;28;20048;-81
2022/09/19 09:47:33;;;;;;;10.10;1.75;;;;;;;17.17;69.92;100908.84;5041746;28;20783;-81
2022/09/19 09:50:37;;;;;;;10.88;1.73;;;;;;;16.61;70.54;100914.97;5023794;28;20491;-81
2022/09/19 09:53:23;;;;;;;3.13;1.50;;;;;;;16.40;71.49;100912.94;5026581;28;20053;-81
2022/09/19 09:56:19;;;;;;;9.02;2.25;;;;;;;16.25;72.18;100916.91;5023576;28;20059;-82
2022/09/19 10:05:20;;;;;;;10.60;1.75;;;;;;;16.28;72.06;100898.31;5029999;28;20042;-81
2022/09/19 10:08:27;;;;;;;7.85;2.42;;;;;;;16.00;70.82;100910.50;5020603;28;20091;-80
2022/09/19 10:11:20;;;;;;;8.80;1.58;;;;;;;15.71;72.30;100914.78;5022231;28;20106;-81
2022/09/19 10:13:58;;;;;;;7.28;1.92;;;;;;;17.05;68.86;100898.63;5004897;28;20052;-82
2022/09/19 10:16:24;;;;;;;6.72;1.42;;;;;;;19.31;61.59;100888.66;5033528;28;20075;-81
2022/09/19 10:18:58;;;;;;;7.72;1.92;;;;;;;21.43;53.93;100880.78;5027423;28;20051;-82
2022/09/19 10:21:25;;;;;;;9.18;2.05;;;;;;;23.00;48.90;100881.31;5032189;28;20045;-83
2022/09/19 10:23:52;;;;;;;5.20;1.23;;;;;;;23.81;46.86;100881.00;5027957;28;20155;-82
2022/09/19 10:26:29;;;;;;;7.90;1.58;;;;;;;24.33;43.39;100868.06;5025563;28;20092;-82
2022/09/19 10:28:59;;;;;;;8.00;1.73;;;;;;;24.97;41.32;100863.03;5007055;28;20069;-80
2022/09/19 10:31:40;;;;;;;5.97;1.38;;;;;;;24.88;42.48;100871.69;4995946;28;20052;-79
2022/09/19 10:34:32;;;;;;;10.27;2.67;;;;;;;23.92;43.73;100873.22;4983694;28;20045;-83
2022/09/19 10:37:02;;;;;;;5.60;1.80;;;;;;;21.47;49.48;100874.38;5004214;28;20831;-81
2022/09/19 10:39:29;;;;;;;5.53;1.27;;;;;;;20.08;53.19;100875.69;5015100;28;20053;-81
2022/09/19 10:41:55;;;;;;;7.32;1.55;;;;;;;19.25;55.89;100873.00;5002309;28;20037;-82
2022/09/19 10:44:26;;;;;;;4.97;1.55;;;;;;;19.51;54.33;100881.66;5001538;28;20048;-80
2022/09/19 10:47:02;;;;;;;3.22;1.10;;;;;;;19.75;52.41;100869.13;4994121;28;20045;-81
2022/09/19 10:49:39;;;;;;;4.75;1.60;;;;;;;19.09;53.81;100877.22;5024168;28;20144;-81
2022/09/19 10:52:06;;;;;;;8.13;1.40;;;;;;;18.98;55.70;100870.56;4975483;28;20049;-81
2022/09/19 10:54:45;;;;;;;6.47;1.10;;;;;;;19.73;55.28;100863.00;5028878;28;20049;-84
2022/09/19 10:57:45;;;;;;;5.22;1.35;;;;;;;20.28;54.26;100872.09;5011566;28;20046;-82
2022/09/19 11:00:51;;;;;;;5.32;1.08;;;;;;;21.60;49.16;100870.19;5017704;28;20048;-83
2022/09/19 11:03:31;;;;;;;7.60;2.17;;;;;;;22.69;46.99;100873.25;5015844;28;20060;-82
2022/09/19 11:06:18;;;;;;;6.65;1.33;;;;;;;24.26;43.87;100862.22;5005983;28;20046;-81
2022/09/19 11:08:51;;;;;;;9.10;1.10;;;;;;;25.43;41.42;100857.31;4983048;28;20132;-82
2022/09/19 11:11:37;;;;;;;8.00;1.67;;;;;;;24.68;41.55;100852.44;4990965;28;20074;-81
2022/09/19 11:14:35;;;;;;;6.10;1.85;;;;;;;22.40;44.32;100865.06;5031926;28;20049;-81
2022/09/19 11:17:49;;;;;;;7.95;1.83;;;;;;;22.05;46.31;100873.16;5020733;28;20064;-82
2022/09/19 11:20:43;;;;;;;4.47;0.90;;;;;;;23.59;42.06;100870.75;5018561;28;20049;-81
2022/09/19 11:23:34;;;;;;;3.00;0.98;;;;;;;24.25;40.65;100869.41;5012987;28;20052;-81
2022/09/19 11:26:27;;;;;;;3.97;1.00;;;;;;;24.66;40.29;100866.88;4999484;28;20042;-82
2022/09/19 11:29:40;;;;;;;6.60;0.90;;;;;;;25.14;39.08;100859.22;4998265;28;20050;-82
2022/09/19 11:32:44;;;;;;;4.88;1.20;;;;;;;23.55;39.44;100874.59;5023103;28;20045;-84
2022/09/19 11:35:31;;;;;;;3.85;1.10;;;;;;;24.48;39.15;100867.06;5012914;28;20156;-81
2022/09/19 11:38:37;;;;;;;4.28;1.52;;;;;;;25.25;37.86;100859.38;5013972;28;20053;-82
2022/09/19 11:41:32;;;;;;;3.35;1.00;;;;;;;26.28;36.31;100850.50;5018477;28;20042;-81
2022/09/19 11:44:16;;;;;;;2.38;0.80;;;;;;;25.72;35.63;100858.91;5017772;28;20357;-83
2022/09/19 11:47:38;;;;;;;2.15;0.65;;;;;;;24.12;39.27;100860.44;5017310;28;20037;-81
2022/09/19 11:50:37;;;;;;;2.60;0.95;;;;;;;21.75;44.89;100870.31;4987065;28;20099;-82
2022/09/19 11:53:44;;;;;;;3.42;0.63;;;;;;;22.49;43.07;100866.38;5018895;28;20092;-82
2022/09/19 11:56:36;;;;;;;2.20;0.50;;;;;;;23.52;41.73;100872.94;5029126;28;20480;-82
2022/09/19 11:59:39;;;;;;;0.85;0.40;;;;;;;25.53;38.26;100844.09;5023399;28;20073;-81
2022/09/19 12:02:44;;;;;;;0.85;0.60;;;;;;;25.51;37.30;100851.38;5016490;28;20046;-82
2022/09/19 12:05:42;;;;;;;2.58;0.70;;;;;;;23.26;40.40;100875.34;5004694;28;20400;-80
2022/09/19 12:08:45;;;;;;;5.53;0.90;;;;;;;20.95;45.58;100885.81;5009583;28;20041;-80
2022/09/19 12:12:01;;;;;;;2.88;0.85;;;;;;;19.07;51.59;100893.19;5010543;28;20476;-81
2022/09/19 12:14:38;;;;;;;6.45;1.10;;;;;;;18.13;55.62;100884.41;4945558;28;20042;-80
2022/09/19 12:17:18;;;;;;;5.18;1.48;;;;;;;17.62;58.87;100899.41;4992270;28;20050;-83
2022/09/19 12:19:51;;;;;;;7.55;1.30;;;;;;;17.17;60.87;100892.13;5006868;28;20060;-82
2022/09/19 12:22:28;;;;;;;1.67;0.60;;;;;;;16.91;63.62;100901.75;5005452;28;20049;-82